sensor_id;sensor_type;location;lat;lon;timestamp;pressure;altitude;pressure_sealevel;temperature;humidity
25658;BME280;13517;59.320;18.042;2023-06-22T00:01:50;100640.97;;;18.69;100.00
25658;BME280;13517;59.320;18.042;2023-06-22T00:04:15;100646.16;;;18.72;100.00
25658;BME280;13517;59.320;18.042;2023-06-22T00:06:41;100594.84;;;18.37;100.00
25658;BME280;13517;59.320;18.042;2023-06-22T00:09:06;100656.63;;;18.76;100.00
25658;BME280;13517;59.320;18.042;2023-06-22T00:11:33;100618.00;;;18.61;100.00
25658;BME280;13517;59.320;18.042;2023-06-22T00:13:59;100637.63;;;18.75;100.00
25658;BME280;13517;59.320;18.042;2023-06-22T00:16:24;100605.66;;;18.57;100.00
25658;BME280;13517;59.320;18.042;2023-06-22T00:18:50;100616.81;;;18.64;100.00
25658;BME280;13517;59.320;18.042;2023-06-22T00:21:15;100637.63;;;18.75;100.00
25658;BME280;13517;59.320;18.042;2023-06-22T00:23:41;100627.44;;;18.67;100.00
25658;BME280;13517;59.320;18.042;2023-06-22T00:26:06;100609.09;;;18.59;100.00
25658;BME280;13517;59.320;18.042;2023-06-22T00:28:33;100573.81;;;18.38;100.00
25658;BME280;13517;59.320;18.042;2023-06-22T00:30:59;100585.31;;;18.42;100.00
25658;BME280;13517;59.320;18.042;2023-06-22T00:33:26;100634.34;;;18.71;100.00
25658;BME280;13517;59.320;18.042;2023-06-22T00:35:51;100637.56;;;18.67;100.00
25658;BME280;13517;59.320;18.042;2023-06-22T00:38:18;100596.50;;;18.48;100.00
25658;BME280;13517;59.320;18.042;2023-06-22T00:40:44;100633.78;;;18.68;100.00
25658;BME280;13517;59.320;18.042;2023-06-22T00:43:09;100612.13;;;18.56;100.00
25658;BME280;13517;59.320;18.042;2023-06-22T00:45:35;100634.50;;;18.70;100.00
25658;BME280;13517;59.320;18.042;2023-06-22T00:48:01;100633.94;;;18.66;100.00
25658;BME280;13517;59.320;18.042;2023-06-22T00:50:30;100635.84;;;18.65;100.00
25658;BME280;13517;59.320;18.042;2023-06-22T00:53:00;100637.56;;;18.67;100.00
25658;BME280;13517;59.320;18.042;2023-06-22T00:55:26;100620.88;;;18.60;100.00
25658;BME280;13517;59.320;18.042;2023-06-22T00:57:53;100606.09;;;18.52;100.00
25658;BME280;13517;59.320;18.042;2023-06-22T01:00:22;100613.88;;;18.57;100.00
25658;BME280;13517;59.320;18.042;2023-06-22T01:02:49;100611.81;;;18.59;100.00
25658;BME280;13517;59.320;18.042;2023-06-22T01:05:18;100572.09;;;18.37;100.00
25658;BME280;13517;59.320;18.042;2023-06-22T01:13:18;100635.50;;;18.69;100.00
25658;BME280;13517;59.320;18.042;2023-06-22T01:15:53;100629.50;;;18.65;100.00
25658;BME280;13517;59.320;18.042;2023-06-22T01:18:22;100632.31;;;18.73;100.00
25658;BME280;13517;59.320;18.042;2023-06-22T01:20:52;100588.16;;;18.50;100.00
25658;BME280;13517;59.320;18.042;2023-06-22T01:26:35;100629.88;;;18.70;100.00
25658;BME280;13517;59.320;18.042;2023-06-22T01:29:04;100625.50;;;18.77;100.00
25658;BME280;13517;59.320;18.042;2023-06-22T01:31:31;100611.69;;;18.79;100.00
25658;BME280;13517;59.320;18.042;2023-06-22T01:34:02;100584.31;;;18.61;100.00
25658;BME280;13517;59.320;18.042;2023-06-22T01:36:29;100576.88;;;18.53;100.00
25658;BME280;13517;59.320;18.042;2023-06-22T01:38:57;100608.69;;;18.72;100.00
25658;BME280;13517;59.320;18.042;2023-06-22T01:41:25;100621.91;;;18.77;100.00
25658;BME280;13517;59.320;18.042;2023-06-22T01:43:52;100591.34;;;18.63;100.00
25658;BME280;13517;59.320;18.042;2023-06-22T01:46:18;100560.69;;;18.42;100.00
25658;BME280;13517;59.320;18.042;2023-06-22T01:48:45;100619.03;;;18.78;100.00
25658;BME280;13517;59.320;18.042;2023-06-22T01:51:11;100619.16;;;18.77;100.00
25658;BME280;13517;59.320;18.042;2023-06-22T01:53:37;100563.13;;;18.45;100.00
25658;BME280;13517;59.320;18.042;2023-06-22T01:56:03;100597.19;;;18.69;100.00
25658;BME280;13517;59.320;18.042;2023-06-22T01:58:29;100617.84;;;18.81;100.00
25658;BME280;13517;59.320;18.042;2023-06-22T02:01:09;100583.91;;;18.56;100.00
25658;BME280;13517;59.320;18.042;2023-06-22T02:03:38;100567.19;;;18.41;100.00
25658;BME280;13517;59.320;18.042;2023-06-22T02:06:17;100630.44;;;18.74;100.00
25658;BME280;13517;59.320;18.042;2023-06-22T02:08:49;100612.59;;;18.70;100.00
25658;BME280;13517;59.320;18.042;2023-06-22T02:11:18;100624.09;;;18.73;100.00
25658;BME280;13517;59.320;18.042;2023-06-22T02:13:45;100612.53;;;18.61;100.00
25658;BME280;13517;59.320;18.042;2023-06-22T02:16:11;100622.53;;;18.71;100.00
25658;BME280;13517;59.320;18.042;2023-06-22T02:18:38;100606.22;;;18.61;100.00
25658;BME280;13517;59.320;18.042;2023-06-22T02:21:05;100590.97;;;18.58;100.00
25658;BME280;13517;59.320;18.042;2023-06-22T02:23:31;100581.66;;;18.51;100.00
25658;BME280;13517;59.320;18.042;2023-06-22T02:25:58;100627.69;;;18.74;100.00
25658;BME280;13517;59.320;18.042;2023-06-22T02:28:23;100616.28;;;18.60;100.00
25658;BME280;13517;59.320;18.042;2023-06-22T02:30:49;100595.34;;;18.51;100.00
25658;BME280;13517;59.320;18.042;2023-06-22T02:33:14;100632.00;;;18.76;100.00
25658;BME280;13517;59.320;18.042;2023-06-22T02:35:39;100574.69;;;18.38;100.00
25658;BME280;13517;59.320;18.042;2023-06-22T02:38:10;100638.94;;;18.71;100.00
25658;BME280;13517;59.320;18.042;2023-06-22T02:40:36;100627.44;;;18.67;100.00
25658;BME280;13517;59.320;18.042;2023-06-22T02:43:01;100628.66;;;18.64;100.00
25658;BME280;13517;59.320;18.042;2023-06-22T02:45:28;100588.75;;;18.44;100.00
25658;BME280;13517;59.320;18.042;2023-06-22T02:47:53;100522.38;;;18.05;100.00
25658;BME280;13517;59.320;18.042;2023-06-22T02:50:19;100540.59;;;18.15;100.00
25658;BME280;13517;59.320;18.042;2023-06-22T02:52:44;100591.88;;;18.49;100.00
25658;BME280;13517;59.320;18.042;2023-06-22T02:55:10;100528.56;;;18.07;100.00
25658;BME280;13517;59.320;18.042;2023-06-22T02:57:35;100562.56;;;18.23;100.00
25658;BME280;13517;59.320;18.042;2023-06-22T03:00:03;100623.47;;;18.61;100.00
25658;BME280;13517;59.320;18.042;2023-06-22T03:02:41;100587.50;;;18.38;100.00
25658;BME280;13517;59.320;18.042;2023-06-22T03:05:07;100639.41;;;18.66;100.00
25658;BME280;13517;59.320;18.042;2023-06-22T03:07:42;100561.53;;;18.24;100.00
25658;BME280;13517;59.320;18.042;2023-06-22T03:10:12;100618.31;;;18.58;100.00
25658;BME280;13517;59.320;18.042;2023-06-22T03:12:38;100609.56;;;18.55;100.00
25658;BME280;13517;59.320;18.042;2023-06-22T03:15:07;100599.09;;;18.50;100.00
25658;BME280;13517;59.320;18.042;2023-06-22T03:17:34;100639.25;;;18.68;100.00
25658;BME280;13517;59.320;18.042;2023-06-22T03:20:00;100603.13;;;18.46;100.00
25658;BME280;13517;59.320;18.042;2023-06-22T03:22:26;100609.56;;;18.55;100.00
25658;BME280;13517;59.320;18.042;2023-06-22T03:24:51;100602.44;;;18.44;100.00
25658;BME280;13517;59.320;18.042;2023-06-22T03:27:16;100642.97;;;18.76;100.00
25658;BME280;13517;59.320;18.042;2023-06-22T03:29:43;100613.31;;;18.72;100.00
25658;BME280;13517;59.320;18.042;2023-06-22T03:32:10;100612.22;;;18.64;100.00
25658;BME280;13517;59.320;18.042;2023-06-22T03:34:35;100621.91;;;18.77;100.00
25658;BME280;13517;59.320;18.042;2023-06-22T03:37:03;100594.06;;;18.63;100.00
25658;BME280;13517;59.320;18.042;2023-06-22T03:39:29;100622.44;;;18.81;100.00
25658;BME280;13517;59.320;18.042;2023-06-22T03:41:54;100584.31;;;18.61;100.00
25658;BME280;13517;59.320;18.042;2023-06-22T03:44:20;100573.38;;;18.61;100.00
25658;BME280;13517;59.320;18.042;2023-06-22T03:46:45;100631.69;;;18.98;100.00
25658;BME280;13517;59.320;18.042;2023-06-22T03:49:11;100609.66;;;18.81;100.00
25658;BME280;13517;59.320;18.042;2023-06-22T03:51:36;100622.69;;;18.87;100.00
25658;BME280;13517;59.320;18.042;2023-06-22T03:54:01;100639.34;;;18.94;100.00
25658;BME280;13517;59.320;18.042;2023-06-22T03:56:27;100616.44;;;18.77;100.00
25658;BME280;13517;59.320;18.042;2023-06-22T03:58:52;100605.81;;;18.74;100.00
25658;BME280;13517;59.320;18.042;2023-06-22T04:01:18;100562.03;;;18.56;100.00
25658;BME280;13517;59.320;18.042;2023-06-22T04:03:44;100602.13;;;18.83;100.00
25658;BME280;13517;59.320;18.042;2023-06-22T04:06:09;100592.19;;;18.82;100.00
25658;BME280;13517;59.320;18.042;2023-06-22T04:08:35;100612.94;;;19.03;100.00
25658;BME280;13517;59.320;18.042;2023-06-22T04:11:00;100618.00;;;18.98;100.00
25658;BME280;13517;59.320;18.042;2023-06-22T04:13:25;100586.50;;;18.75;100.00
25658;BME280;13517;59.320;18.042;2023-06-22T04:15:51;100618.53;;;19.01;100.00
25658;BME280;13517;59.320;18.042;2023-06-22T04:18:16;100587.66;;;18.91;100.00
25658;BME280;13517;59.320;18.042;2023-06-22T04:20:42;100600.53;;;18.99;100.00
25658;BME280;13517;59.320;18.042;2023-06-22T04:23:07;100603.00;;;19.02;100.00
25658;BME280;13517;59.320;18.042;2023-06-22T04:25:33;100633.84;;;19.30;100.00
25658;BME280;13517;59.320;18.042;2023-06-22T04:27:59;100637.47;;;19.31;100.00
25658;BME280;13517;59.320;18.042;2023-06-22T04:30:24;100606.22;;;19.15;100.00
25658;BME280;13517;59.320;18.042;2023-06-22T04:32:50;100617.81;;;19.36;100.00
25658;BME280;13517;59.320;18.042;2023-06-22T04:35:21;100631.94;;;19.49;100.00
25658;BME280;13517;59.320;18.042;2023-06-22T04:37:47;100596.13;;;19.42;100.00
25658;BME280;13517;59.320;18.042;2023-06-22T04:40:15;100585.78;;;19.28;100.00
25658;BME280;13517;59.320;18.042;2023-06-22T04:42:40;100640.69;;;19.53;100.00
25658;BME280;13517;59.320;18.042;2023-06-22T04:45:08;100644.41;;;19.43;100.00
25658;BME280;13517;59.320;18.042;2023-06-22T04:47:35;100631.06;;;19.22;100.00
25658;BME280;13517;59.320;18.042;2023-06-22T04:50:04;100585.56;;;19.03;100.00
25658;BME280;13517;59.320;18.042;2023-06-22T04:52:31;100616.88;;;19.27;100.00
25658;BME280;13517;59.320;18.042;2023-06-22T04:54:56;100644.41;;;19.43;100.00
25658;BME280;13517;59.320;18.042;2023-06-22T04:57:22;100636.31;;;19.60;100.00
25658;BME280;13517;59.320;18.042;2023-06-22T04:59:55;100653.03;;;19.75;100.00
25658;BME280;13517;59.320;18.042;2023-06-22T05:02:21;100628.78;;;19.62;100.00
25658;BME280;13517;59.320;18.042;2023-06-22T05:04:47;100606.16;;;19.60;100.00
25658;BME280;13517;59.320;18.042;2023-06-22T05:07:16;100626.69;;;19.82;100.00
25658;BME280;13517;59.320;18.042;2023-06-22T05:09:41;100648.13;;;19.87;100.00
25658;BME280;13517;59.320;18.042;2023-06-22T05:12:07;100615.91;;;19.54;100.00
25658;BME280;13517;59.320;18.042;2023-06-22T05:14:33;100620.88;;;19.59;100.00
25658;BME280;13517;59.320;18.042;2023-06-22T05:16:58;100606.75;;;19.45;100.00
25658;BME280;13517;59.320;18.042;2023-06-22T05:19:24;100615.41;;;19.59;100.00
25658;BME280;13517;59.320;18.042;2023-06-22T05:21:50;100600.41;;;19.71;100.00
25658;BME280;13517;59.320;18.042;2023-06-22T05:24:16;100610.41;;;19.89;100.00
25658;BME280;13517;59.320;18.042;2023-06-22T05:26:41;100599.72;;;19.96;100.00
25658;BME280;13517;59.320;18.042;2023-06-22T05:29:07;100634.72;;;20.10;100.00
25658;BME280;13517;59.320;18.042;2023-06-22T05:31:33;100665.91;;;20.09;100.00
25658;BME280;13517;59.320;18.042;2023-06-22T05:33:58;100641.97;;;19.93;100.00
25658;BME280;13517;59.320;18.042;2023-06-22T05:36:25;100613.78;;;19.74;100.00
25658;BME280;13517;59.320;18.042;2023-06-22T05:38:51;100674.56;;;19.96;100.00
25658;BME280;13517;59.320;18.042;2023-06-22T05:41:17;100654.78;;;19.84;100.00
25658;BME280;13517;59.320;18.042;2023-06-22T05:43:42;100645.28;;;19.70;100.00
25658;BME280;13517;59.320;18.042;2023-06-22T05:46:08;100649.41;;;19.74;100.00
25658;BME280;13517;59.320;18.042;2023-06-22T05:48:33;100633.97;;;19.73;100.00
25658;BME280;13517;59.320;18.042;2023-06-22T05:50:59;100642.22;;;19.73;100.00
25658;BME280;13517;59.320;18.042;2023-06-22T05:53:24;100608.50;;;19.55;100.00
25658;BME280;13517;59.320;18.042;2023-06-22T05:55:50;100658.13;;;19.70;100.00
25658;BME280;13517;59.320;18.042;2023-06-22T05:58:15;100636.19;;;19.43;100.00
25658;BME280;13517;59.320;18.042;2023-06-22T06:00:41;100600.56;;;19.17;100.00
25658;BME280;13517;59.320;18.042;2023-06-22T06:03:07;100665.38;;;19.53;100.00
25658;BME280;13517;59.320;18.042;2023-06-22T06:05:35;100664.63;;;19.42;100.00
25658;BME280;13517;59.320;18.042;2023-06-22T06:08:02;100670.41;;;19.39;100.00
25658;BME280;13517;59.320;18.042;2023-06-22T06:10:28;100610.19;;;19.03;100.00
25658;BME280;13517;59.320;18.042;2023-06-22T06:12:55;100651.25;;;19.21;100.00
25658;BME280;13517;59.320;18.042;2023-06-22T06:15:21;100669.47;;;19.30;100.00
25658;BME280;13517;59.320;18.042;2023-06-22T06:17:53;100625.47;;;19.05;100.00
25658;BME280;13517;59.320;18.042;2023-06-22T06:20:20;100653.03;;;19.30;100.00
25658;BME280;13517;59.320;18.042;2023-06-22T06:22:46;100651.31;;;19.29;100.00
25658;BME280;13517;59.320;18.042;2023-06-22T06:25:12;100620.81;;;19.06;100.00
25658;BME280;13517;59.320;18.042;2023-06-22T06:27:44;100609.41;;;18.92;100.00
25658;BME280;13517;59.320;18.042;2023-06-22T06:30:11;100623.75;;;19.04;100.00
25658;BME280;13517;59.320;18.042;2023-06-22T06:32:37;100654.69;;;19.23;100.00
25658;BME280;13517;59.320;18.042;2023-06-22T06:35:07;100640.78;;;19.16;100.00
25658;BME280;13517;59.320;18.042;2023-06-22T06:37:36;100637.41;;;19.23;100.00
25658;BME280;13517;59.320;18.042;2023-06-22T06:40:03;100677.41;;;19.60;100.00
25658;BME280;13517;59.320;18.042;2023-06-22T06:42:30;100619.16;;;19.31;100.00
25658;BME280;13517;59.320;18.042;2023-06-22T06:44:56;100643.69;;;19.41;100.00
25658;BME280;13517;59.320;18.042;2023-06-22T06:47:22;100684.59;;;19.61;100.00
25658;BME280;13517;59.320;18.042;2023-06-22T06:49:47;100688.34;;;19.60;100.00
25658;BME280;13517;59.320;18.042;2023-06-22T06:52:12;100647.16;;;19.43;100.00
25658;BME280;13517;59.320;18.042;2023-06-22T06:54:38;100627.00;;;19.53;100.00
25658;BME280;13517;59.320;18.042;2023-06-22T06:57:03;100655.69;;;19.93;100.00
25658;BME280;13517;59.320;18.042;2023-06-22T06:59:29;100687.81;;;20.36;100.00
25658;BME280;13517;59.320;18.042;2023-06-22T07:01:55;100675.69;;;20.55;100.00
25658;BME280;13517;59.320;18.042;2023-06-22T07:04:21;100649.13;;;20.55;100.00
25658;BME280;13517;59.320;18.042;2023-06-22T07:06:46;100643.28;;;20.59;100.00
25658;BME280;13517;59.320;18.042;2023-06-22T07:09:12;100688.34;;;20.91;100.00
25658;BME280;13517;59.320;18.042;2023-06-22T07:11:37;100662.94;;;20.97;100.00
25658;BME280;13517;59.320;18.042;2023-06-22T07:14:02;100670.31;;;21.05;100.00
25658;BME280;13517;59.320;18.042;2023-06-22T07:16:28;100664.31;;;21.01;100.00
25658;BME280;13517;59.320;18.042;2023-06-22T07:18:55;100670.09;;;20.81;100.00
25658;BME280;13517;59.320;18.042;2023-06-22T07:21:20;100704.47;;;20.86;100.00
25658;BME280;13517;59.320;18.042;2023-06-22T07:23:46;100669.00;;;20.58;100.00
25658;BME280;13517;59.320;18.042;2023-06-22T07:26:11;100689.28;;;20.73;100.00
25658;BME280;13517;59.320;18.042;2023-06-22T07:28:38;100706.13;;;20.78;100.00
25658;BME280;13517;59.320;18.042;2023-06-22T07:31:06;100711.38;;;20.63;100.00
25658;BME280;13517;59.320;18.042;2023-06-22T07:33:31;100669.56;;;20.26;100.00
25658;BME280;13517;59.320;18.042;2023-06-22T07:35:56;100690.88;;;20.41;100.00
25658;BME280;13517;59.320;18.042;2023-06-22T07:38:22;100687.41;;;20.22;100.00
25658;BME280;13517;59.320;18.042;2023-06-22T07:40:47;100709.13;;;20.16;100.00
25658;BME280;13517;59.320;18.042;2023-06-22T07:43:13;100699.88;;;20.17;100.00
25658;BME280;13517;59.320;18.042;2023-06-22T07:45:38;100700.34;;;20.12;100.00
25658;BME280;13517;59.320;18.042;2023-06-22T07:48:06;100685.47;;;19.88;100.00
25658;BME280;13517;59.320;18.042;2023-06-22T07:50:31;100687.50;;;19.86;100.00
25658;BME280;13517;59.320;18.042;2023-06-22T07:52:57;100677.19;;;19.80;100.00
25658;BME280;13517;59.320;18.042;2023-06-22T07:55:22;100649.81;;;19.88;100.00
25658;BME280;13517;59.320;18.042;2023-06-22T07:57:49;100688.44;;;20.30;100.00
25658;BME280;13517;59.320;18.042;2023-06-22T08:00:14;100679.59;;;20.44;100.00
25658;BME280;13517;59.320;18.042;2023-06-22T08:02:42;100693.72;;;20.66;100.00
25658;BME280;13517;59.320;18.042;2023-06-22T08:05:09;100673.13;;;20.62;100.00
25658;BME280;13517;59.320;18.042;2023-06-22T08:07:38;100685.59;;;20.91;100.00
25658;BME280;13517;59.320;18.042;2023-06-22T08:10:05;100679.44;;;21.14;99.46
25658;BME280;13517;59.320;18.042;2023-06-22T08:12:30;100681.66;;;21.18;99.04
25658;BME280;13517;59.320;18.042;2023-06-22T08:14:56;100654.72;;;21.22;97.62
25658;BME280;13517;59.320;18.042;2023-06-22T08:17:23;100650.94;;;21.31;96.46
25658;BME280;13517;59.320;18.042;2023-06-22T08:19:48;100632.06;;;21.28;95.93
25658;BME280;13517;59.320;18.042;2023-06-22T08:22:15;100651.63;;;21.42;95.19
25658;BME280;13517;59.320;18.042;2023-06-22T08:24:40;100655.41;;;21.49;94.00
25658;BME280;13517;59.320;18.042;2023-06-22T08:27:10;100684.25;;;21.70;92.42
25658;BME280;13517;59.320;18.042;2023-06-22T08:29:39;100658.97;;;21.66;91.82
25658;BME280;13517;59.320;18.042;2023-06-22T08:32:04;100667.56;;;21.88;90.53
25658;BME280;13517;59.320;18.042;2023-06-22T08:34:30;100683.63;;;22.08;90.35
25658;BME280;13517;59.320;18.042;2023-06-22T08:36:56;100663.66;;;22.14;89.59
25658;BME280;13517;59.320;18.042;2023-06-22T08:39:21;100632.97;;;21.94;88.77
25658;BME280;13517;59.320;18.042;2023-06-22T08:41:47;100635.44;;;21.72;88.63
25658;BME280;13517;59.320;18.042;2023-06-22T08:44:13;100647.47;;;21.62;88.92
25658;BME280;13517;59.320;18.042;2023-06-22T08:46:39;100698.44;;;21.98;88.29
25658;BME280;13517;59.320;18.042;2023-06-22T08:49:06;100674.22;;;21.94;88.07
25658;BME280;13517;59.320;18.042;2023-06-22T08:51:32;100675.28;;;21.84;87.57
25658;BME280;13517;59.320;18.042;2023-06-22T08:53:57;100666.53;;;21.56;88.64
25658;BME280;13517;59.320;18.042;2023-06-22T08:56:22;100655.91;;;21.53;89.08
25658;BME280;13517;59.320;18.042;2023-06-22T08:58:48;100683.34;;;21.86;88.77
25658;BME280;13517;59.320;18.042;2023-06-22T09:01:13;100658.56;;;22.02;87.35
25658;BME280;13517;59.320;18.042;2023-06-22T09:03:40;100666.97;;;22.09;85.93
25658;BME280;13517;59.320;18.042;2023-06-22T09:06:06;100632.66;;;21.88;85.84
25658;BME280;13517;59.320;18.042;2023-06-22T09:08:32;100641.22;;;21.94;85.56
25658;BME280;13517;59.320;18.042;2023-06-22T09:10:57;100653.19;;;22.09;84.97
25658;BME280;13517;59.320;18.042;2023-06-22T09:13:22;100646.16;;;22.15;84.76
25658;BME280;13517;59.320;18.042;2023-06-22T09:15:48;100658.06;;;22.39;83.24
25658;BME280;13517;59.320;18.042;2023-06-22T09:18:14;100662.66;;;22.47;82.66
25658;BME280;13517;59.320;18.042;2023-06-22T09:20:39;100661.66;;;22.39;82.25
25658;BME280;13517;59.320;18.042;2023-06-22T09:23:04;100672.72;;;22.31;82.86
25658;BME280;13517;59.320;18.042;2023-06-22T09:25:30;100661.66;;;21.99;83.37
25658;BME280;13517;59.320;18.042;2023-06-22T09:27:56;100640.94;;;21.80;83.99
25658;BME280;13517;59.320;18.042;2023-06-22T09:30:21;100614.31;;;21.56;83.88
25658;BME280;13517;59.320;18.042;2023-06-22T09:32:47;100650.91;;;21.64;83.97
25658;BME280;13517;59.320;18.042;2023-06-22T09:35:12;100600.44;;;21.41;82.93
25658;BME280;13517;59.320;18.042;2023-06-22T09:37:39;100655.00;;;21.85;82.44
25658;BME280;13517;59.320;18.042;2023-06-22T09:40:06;100620.66;;;21.64;81.06
25658;BME280;13517;59.320;18.042;2023-06-22T09:42:34;100647.81;;;21.84;80.94
25658;BME280;13517;59.320;18.042;2023-06-22T09:45:00;100616.03;;;21.73;81.04
25658;BME280;13517;59.320;18.042;2023-06-22T09:47:27;100627.00;;;21.82;80.46
25658;BME280;13517;59.320;18.042;2023-06-22T09:49:52;100629.94;;;21.80;80.07
25658;BME280;13517;59.320;18.042;2023-06-22T09:52:19;100642.94;;;21.95;79.46
25658;BME280;13517;59.320;18.042;2023-06-22T09:54:44;100653.81;;;21.88;79.93
25658;BME280;13517;59.320;18.042;2023-06-22T09:57:10;100588.41;;;21.50;78.71
25658;BME280;13517;59.320;18.042;2023-06-22T09:59:35;100627.22;;;21.72;77.97
25658;BME280;13517;59.320;18.042;2023-06-22T10:02:01;100644.53;;;21.81;77.55
25658;BME280;13517;59.320;18.042;2023-06-22T10:04:26;100644.38;;;21.66;77.17
25658;BME280;13517;59.320;18.042;2023-06-22T10:06:51;100668.09;;;21.58;78.01
25658;BME280;13517;59.320;18.042;2023-06-22T10:09:17;100652.63;;;21.57;77.44
25658;BME280;13517;59.320;18.042;2023-06-22T10:11:42;100618.41;;;21.68;75.92
25658;BME280;13517;59.320;18.042;2023-06-22T10:14:08;100645.41;;;21.73;74.72
25658;BME280;13517;59.320;18.042;2023-06-22T10:16:35;100627.88;;;21.66;74.68
25658;BME280;13517;59.320;18.042;2023-06-22T10:19:01;100614.47;;;21.54;74.60
25658;BME280;13517;59.320;18.042;2023-06-22T10:21:26;100589.78;;;21.38;74.48
25658;BME280;13517;59.320;18.042;2023-06-22T10:23:55;100640.28;;;21.70;74.73
25658;BME280;13517;59.320;18.042;2023-06-22T10:26:21;100644.38;;;21.74;75.17
25658;BME280;13517;59.320;18.042;2023-06-22T10:28:46;100601.78;;;21.53;74.80
25658;BME280;13517;59.320;18.042;2023-06-22T10:31:12;100615.34;;;21.80;74.87
25658;BME280;13517;59.320;18.042;2023-06-22T10:33:37;100645.66;;;22.11;74.01
25658;BME280;13517;59.320;18.042;2023-06-22T10:36:03;100639.13;;;22.12;72.31
25658;BME280;13517;59.320;18.042;2023-06-22T10:38:28;100606.16;;;21.96;71.23
25658;BME280;13517;59.320;18.042;2023-06-22T10:40:53;100633.97;;;22.01;70.34
25658;BME280;13517;59.320;18.042;2023-06-22T10:43:19;100631.44;;;21.91;69.59
25658;BME280;13517;59.320;18.042;2023-06-22T10:45:45;100630.44;;;21.84;69.97
25658;BME280;13517;59.320;18.042;2023-06-22T10:48:10;100623.91;;;21.76;69.90
25658;BME280;13517;59.320;18.042;2023-06-22T10:50:35;100634.34;;;21.98;69.10
25658;BME280;13517;59.320;18.042;2023-06-22T10:53:01;100586.59;;;21.82;68.83
25658;BME280;13517;59.320;18.042;2023-06-22T10:55:26;100588.97;;;21.94;69.34
25658;BME280;13517;59.320;18.042;2023-06-22T10:57:52;100620.03;;;22.11;69.03
25658;BME280;13517;59.320;18.042;2023-06-22T11:00:17;100640.78;;;22.22;68.62
25658;BME280;13517;59.320;18.042;2023-06-22T11:02:43;100596.53;;;22.00;68.14
25658;BME280;13517;59.320;18.042;2023-06-22T11:05:09;100643.16;;;22.25;68.14
25658;BME280;13517;59.320;18.042;2023-06-22T11:07:34;100638.53;;;22.25;68.32
25658;BME280;13517;59.320;18.042;2023-06-22T11:09:59;100627.97;;;22.37;67.54
25658;BME280;13517;59.320;18.042;2023-06-22T11:12:25;100599.88;;;22.18;66.56
25658;BME280;13517;59.320;18.042;2023-06-22T11:14:50;100642.38;;;22.48;65.38
25658;BME280;13517;59.320;18.042;2023-06-22T11:17:17;100617.13;;;22.36;65.33
25658;BME280;13517;59.320;18.042;2023-06-22T11:19:44;100596.38;;;22.25;65.23
25658;BME280;13517;59.320;18.042;2023-06-22T11:22:10;100620.72;;;22.44;65.24
25658;BME280;13517;59.320;18.042;2023-06-22T11:24:35;100615.38;;;22.51;65.25
25658;BME280;13517;59.320;18.042;2023-06-22T11:27:00;100623.78;;;22.50;64.93
25658;BME280;13517;59.320;18.042;2023-06-22T11:29:26;100631.28;;;22.64;64.95
25658;BME280;13517;59.320;18.042;2023-06-22T11:31:51;100592.16;;;22.54;64.12
25658;BME280;13517;59.320;18.042;2023-06-22T11:34:17;100632.16;;;22.88;63.71
25658;BME280;13517;59.320;18.042;2023-06-22T11:36:44;100623.63;;;22.83;63.06
25658;BME280;13517;59.320;18.042;2023-06-22T11:39:10;100619.19;;;22.74;63.77
25658;BME280;13517;59.320;18.042;2023-06-22T11:41:36;100623.53;;;22.68;63.16
25658;BME280;13517;59.320;18.042;2023-06-22T11:44:01;100622.66;;;22.67;63.68
25658;BME280;13517;59.320;18.042;2023-06-22T11:46:27;100634.97;;;22.80;62.03
25658;BME280;13517;59.320;18.042;2023-06-22T11:48:52;100642.81;;;22.91;61.40
25658;BME280;13517;59.320;18.042;2023-06-22T11:51:19;100629.91;;;22.68;60.94
25658;BME280;13517;59.320;18.042;2023-06-22T11:53:44;100634.00;;;22.72;60.91
25658;BME280;13517;59.320;18.042;2023-06-22T11:56:09;100547.56;;;22.27;61.28
25658;BME280;13517;59.320;18.042;2023-06-22T11:58:35;100604.16;;;22.61;62.21
25658;BME280;13517;59.320;18.042;2023-06-22T12:01:00;100642.50;;;22.86;61.38
25658;BME280;13517;59.320;18.042;2023-06-22T12:03:26;100626.28;;;22.68;61.20
25658;BME280;13517;59.320;18.042;2023-06-22T12:05:51;100614.94;;;22.63;60.75
25658;BME280;13517;59.320;18.042;2023-06-22T12:08:19;100600.34;;;22.62;61.27
25658;BME280;13517;59.320;18.042;2023-06-22T12:10:45;100613.19;;;22.70;61.26
25658;BME280;13517;59.320;18.042;2023-06-22T12:13:10;100638.41;;;22.82;60.72
25658;BME280;13517;59.320;18.042;2023-06-22T12:15:36;100629.72;;;22.93;60.94
25658;BME280;13517;59.320;18.042;2023-06-22T12:18:01;100607.34;;;22.96;60.24
25658;BME280;13517;59.320;18.042;2023-06-22T12:20:26;100601.88;;;22.88;60.21
25658;BME280;13517;59.320;18.042;2023-06-22T12:22:52;100644.53;;;23.16;60.17
25658;BME280;13517;59.320;18.042;2023-06-22T12:25:19;100613.50;;;22.98;60.30
25658;BME280;13517;59.320;18.042;2023-06-22T12:27:44;100612.06;;;23.03;59.92
25658;BME280;13517;59.320;18.042;2023-06-22T12:30:10;100605.25;;;22.98;59.77
25658;BME280;13517;59.320;18.042;2023-06-22T12:32:35;100617.97;;;22.99;59.92
25658;BME280;13517;59.320;18.042;2023-06-22T12:35:00;100636.13;;;23.09;59.58
25658;BME280;13517;59.320;18.042;2023-06-22T12:37:26;100614.09;;;22.85;60.07